Time;durP1;ratioP1;P1;durP2;ratioP2;P2;SDS_P1;SDS_P2;PMS_P1;PMS_P2;Temp;Humidity;BMP_temperature;BMP_pressure;BME280_temperature;BME280_humidity;BME280_pressure;Samples;Min_cycle;Max_cycle;Signal;HPM_P1;HPM_P2
2022/07/20 00:00:33;;;;;;;1999.90;999.90;;;21.20;99.90;;;;;;5054690;28;20021;-70
2022/07/20 00:03:11;;;;;;;1999.90;999.90;;;21.30;99.90;;;;;;5054762;28;20400;-72
2022/07/20 00:05:37;;;;;;;1999.90;999.90;;;21.30;99.90;;;;;;5053766;28;20021;-72
2022/07/20 00:08:03;;;;;;;1999.90;999.90;;;21.30;99.90;;;;;;5054470;28;20043;-72
2022/07/20 00:13:15;;;;;;;1999.90;999.90;;;21.30;99.90;;;;;;5054869;28;20090;-70
2022/07/20 00:15:41;;;;;;;1999.90;999.90;;;21.30;99.90;;;;;;5053968;28;20479;-70
2022/07/20 00:18:07;;;;;;;1999.90;999.90;;;21.30;99.90;;;;;;5054343;28;20073;-72
2022/07/20 00:20:34;;;;;;;1999.90;999.90;;;21.30;99.90;;;;;;5036513;28;20040;-73
2022/07/20 00:22:59;;;;;;;1999.90;999.90;;;21.30;99.90;;;;;;5054220;28;20048;-73
2022/07/20 00:25:26;;;;;;;1999.90;999.90;;;21.30;99.90;;;;;;5054223;28;20151;-72
2022/07/20 00:27:52;;;;;;;1999.90;999.90;;;21.30;99.90;;;;;;5054202;28;20423;-72
2022/07/20 00:30:18;;;;;;;1999.90;999.90;;;21.30;99.90;;;;;;5054441;28;20045;-73
2022/07/20 00:32:43;;;;;;;1999.90;999.90;;;21.30;99.90;;;;;;5054160;28;20025;-72
2022/07/20 00:35:11;;;;;;;1999.90;999.90;;;21.30;99.90;;;;;;5054016;28;20025;-70
2022/07/20 00:37:37;;;;;;;1999.90;999.90;;;21.20;99.90;;;;;;5054356;28;20422;-70
2022/07/20 00:40:04;;;;;;;1999.90;999.90;;;21.20;99.90;;;;;;5053742;28;20021;-73
2022/07/20 00:42:30;;;;;;;1999.90;999.90;;;21.10;99.90;;;;;;5041017;28;20034;-73
2022/07/20 00:44:55;;;;;;;1999.90;999.90;;;21.10;99.90;;;;;;5053302;28;20544;-72
2022/07/20 00:47:21;;;;;;;1999.90;999.90;;;21.10;99.90;;;;;;5053654;28;20103;-72
2022/07/20 00:49:47;;;;;;;1999.90;999.90;;;21.10;99.90;;;;;;5054083;28;20033;-73
2022/07/20 00:52:13;;;;;;;1999.90;999.90;;;21.00;99.90;;;;;;5053902;28;20021;-71
2022/07/20 00:54:39;;;;;;;1999.90;999.90;;;21.00;99.90;;;;;;5053716;28;20078;-72
2022/07/20 00:57:05;;;;;;;1999.90;999.90;;;21.00;99.90;;;;;;5053766;28;20025;-73
2022/07/20 00:59:31;;;;;;;1999.90;999.90;;;21.00;99.90;;;;;;5053661;28;20561;-72
2022/07/20 01:01:56;;;;;;;1999.90;999.90;;;21.00;99.90;;;;;;5061856;28;20021;-70
2022/07/20 01:04:22;;;;;;;1999.90;999.90;;;21.00;99.90;;;;;;5053387;28;20064;-72
2022/07/20 01:06:49;;;;;;;1999.90;999.90;;;21.00;99.90;;;;;;5047729;28;20025;-70
2022/07/20 01:09:18;;;;;;;1999.90;999.90;;;20.90;99.90;;;;;;5053198;28;20178;-72
2022/07/20 01:11:44;;;;;;;1999.90;999.90;;;20.80;99.90;;;;;;5053384;28;20167;-70
2022/07/20 01:14:10;;;;;;;1999.90;999.90;;;20.70;99.90;;;;;;5052911;28;20033;-70
2022/07/20 01:16:37;;;;;;;1999.90;999.90;;;20.50;99.90;;;;;;5052271;28;20099;-70
2022/07/20 01:19:04;;;;;;;1999.90;999.90;;;20.40;99.90;;;;;;5035336;28;20470;-69
2022/07/20 01:21:30;;;;;;;1999.90;999.90;;;20.10;99.90;;;;;;5053136;28;20062;-74
2022/07/20 01:23:55;;;;;;;1999.90;999.90;;;19.90;99.90;;;;;;5053526;28;20064;-70
2022/07/20 01:26:22;;;;;;;1999.90;999.90;;;19.50;99.90;;;;;;5052693;28;20480;-72
2022/07/20 01:28:47;;;;;;;1999.90;999.90;;;19.20;99.90;;;;;;5053294;28;20025;-71
2022/07/20 01:31:13;;;;;;;1999.90;999.90;;;19.00;99.90;;;;;;5053044;28;20397;-69
2022/07/20 01:33:39;;;;;;;1999.90;999.90;;;18.90;99.90;;;;;;5052878;28;20033;-70
2022/07/20 01:36:05;;;;;;;1999.90;999.90;;;18.90;99.90;;;;;;5053058;28;20025;-70
2022/07/20 01:38:30;;;;;;;1999.90;999.90;;;18.80;99.90;;;;;;5046124;28;20030;-72
2022/07/20 01:40:56;;;;;;;1999.90;999.90;;;18.80;99.90;;;;;;5061096;28;20430;-70
2022/07/20 01:43:22;;;;;;;1999.90;999.90;;;18.70;99.90;;;;;;5052864;28;20454;-69
2022/07/20 01:45:47;;;;;;;1999.90;999.90;;;18.70;99.90;;;;;;5052945;28;20116;-73
2022/07/20 01:48:13;;;;;;;1999.90;999.90;;;18.70;99.90;;;;;;5052581;28;20041;-72
2022/07/20 01:50:39;;;;;;;1999.90;999.90;;;18.70;99.90;;;;;;5052787;28;20024;-72
2022/07/20 01:53:06;;;;;;;1999.90;999.90;;;18.80;99.90;;;;;;5053053;28;20035;-70
2022/07/20 01:55:32;;;;;;;1999.90;999.90;;;18.80;99.90;;;;;;5052276;28;20024;-70
2022/07/20 01:57:58;;;;;;;1999.90;999.90;;;18.80;99.90;;;;;;5052702;28;20029;-70
2022/07/20 02:00:24;;;;;;;1999.90;999.90;;;18.80;99.90;;;;;;5052885;28;20021;-72
2022/07/20 02:02:50;;;;;;;1999.90;999.90;;;18.80;99.90;;;;;;5052778;28;20119;-72
2022/07/20 02:05:16;;;;;;;1999.90;999.90;;;18.80;99.90;;;;;;5052683;28;20022;-72
2022/07/20 02:07:42;;;;;;;1999.90;999.90;;;18.70;99.90;;;;;;5052465;28;20438;-70
2022/07/20 02:10:09;;;;;;;1999.90;999.90;;;18.80;99.90;;;;;;5052377;28;20062;-70
2022/07/20 02:12:35;;;;;;;1999.90;999.90;;;18.80;99.90;;;;;;5052532;28;20031;-73
2022/07/20 02:15:01;;;;;;;1999.90;999.90;;;18.90;99.90;;;;;;5052499;28;20017;-73
2022/07/20 02:17:27;;;;;;;1999.90;999.90;;;19.00;99.90;;;;;;5052038;28;20369;-71
2022/07/20 02:19:52;;;;;;;1999.90;999.90;;;19.00;99.90;;;;;;5052411;28;20487;-70
2022/07/20 02:22:18;;;;;;;1999.90;999.90;;;18.90;99.90;;;;;;5052547;28;20028;-70
2022/07/20 02:24:43;;;;;;;1999.90;999.90;;;19.00;99.90;;;;;;5052267;28;20025;-73
2022/07/20 02:27:09;;;;;;;1999.90;999.90;;;18.90;99.90;;;;;;5052886;28;20445;-73
2022/07/20 02:29:35;;;;;;;1999.90;999.90;;;18.90;99.90;;;;;;5056519;28;20021;-73
2022/07/20 02:32:00;;;;;;;1999.90;999.90;;;18.90;99.90;;;;;;5056622;28;20056;-73
2022/07/20 02:34:27;;;;;;;1999.90;999.90;;;18.90;99.90;;;;;;5056226;28;20037;-71
2022/07/20 02:36:52;;;;;;;1999.90;999.90;;;18.90;99.90;;;;;;5056773;28;20025;-71
2022/07/20 02:39:18;;;;;;;1999.90;999.90;;;18.90;99.90;;;;;;5045490;28;20483;-72
2022/07/20 02:41:43;;;;;;;1999.90;999.90;;;18.90;99.90;;;;;;5068141;28;20025;-73
2022/07/20 02:44:09;;;;;;;1999.90;999.90;;;18.90;99.90;;;;;;5056589;28;20500;-73
2022/07/20 02:46:35;;;;;;;1999.90;999.90;;;19.00;99.90;;;;;;5056386;28;20059;-73
2022/07/20 02:49:00;;;;;;;1999.90;999.90;;;19.00;99.90;;;;;;5056309;28;20036;-70
2022/07/20 02:51:26;;;;;;;1999.90;999.90;;;19.10;99.90;;;;;;5056075;28;20021;-73
2022/07/20 02:53:51;;;;;;;1999.90;999.90;;;19.10;99.90;;;;;;5056128;28;20078;-71
2022/07/20 02:56:17;;;;;;;1999.90;999.90;;;19.10;99.90;;;;;;5056038;28;20365;-74
2022/07/20 02:58:43;;;;;;;1999.90;999.90;;;19.10;99.90;;;;;;5056041;28;20036;-71
2022/07/20 03:01:08;;;;;;;1999.90;999.90;;;19.10;99.90;;;;;;5058320;28;20118;-71
2022/07/20 03:03:34;;;;;;;1999.90;999.90;;;19.10;99.90;;;;;;5061641;28;20474;-73
2022/07/20 03:06:00;;;;;;;1999.90;999.90;;;19.20;99.90;;;;;;5055910;28;20029;-73
2022/07/20 03:08:26;;;;;;;1999.90;999.90;;;19.20;99.90;;;;;;5055448;28;20082;-73
2022/07/20 03:10:52;;;;;;;1999.90;999.90;;;19.20;99.90;;;;;;5055661;28;20021;-73
2022/07/20 03:13:17;;;;;;;1999.90;999.90;;;19.20;99.90;;;;;;5055640;28;20025;-71
2022/07/20 03:15:43;;;;;;;1999.90;999.90;;;19.20;99.90;;;;;;5055507;28;20017;-73
2022/07/20 03:18:09;;;;;;;1999.90;999.90;;;19.30;99.90;;;;;;5054873;28;20039;-73
2022/07/20 03:20:34;;;;;;;1999.90;999.90;;;19.30;99.90;;;;;;5055683;28;20422;-73
2022/07/20 03:23:01;;;;;;;1999.90;999.90;;;19.40;99.90;;;;;;5055196;28;20476;-73
2022/07/20 03:25:27;;;;;;;1999.90;999.90;;;19.40;99.90;;;;;;5055411;28;20017;-71
2022/07/20 03:27:54;;;;;;;1999.90;999.90;;;19.50;99.90;;;;;;5055294;28;20031;-71
2022/07/20 03:30:20;;;;;;;1999.90;999.90;;;19.50;99.90;;;;;;5055494;28;20053;-73
2022/07/20 03:32:46;;;;;;;1999.90;999.90;;;19.60;99.90;;;;;;5055364;28;20434;-73
2022/07/20 03:35:12;;;;;;;1999.90;999.90;;;19.60;99.90;;;;;;5055106;28;20021;-73
2022/07/20 03:37:38;;;;;;;1999.90;999.90;;;19.70;99.90;;;;;;5055035;28;20584;-73
2022/07/20 03:40:05;;;;;;;1999.90;999.90;;;19.60;99.90;;;;;;5054622;28;20029;-70
2022/07/20 03:42:31;;;;;;;1999.90;999.90;;;19.60;99.90;;;;;;5042612;28;20033;-73
2022/07/20 03:44:57;;;;;;;1999.90;999.90;;;19.60;99.90;;;;;;5055180;28;20025;-74
2022/07/20 03:47:23;;;;;;;1999.90;999.90;;;19.60;99.90;;;;;;5055146;28;20078;-73
2022/07/20 03:49:50;;;;;;;1999.90;999.90;;;19.60;99.90;;;;;;5055028;28;20496;-74
2022/07/20 03:52:16;;;;;;;1999.90;999.90;;;19.50;99.90;;;;;;5055075;28;20025;-70
2022/07/20 03:54:42;;;;;;;1999.90;999.90;;;19.50;99.90;;;;;;5054910;28;20075;-73
2022/07/20 03:57:08;;;;;;;1999.90;999.90;;;19.50;99.90;;;;;;5054860;28;20071;-73
2022/07/20 03:59:34;;;;;;;1999.90;999.90;;;19.50;99.90;;;;;;5054738;28;20029;-73
2022/07/20 04:02:00;;;;;;;1999.90;999.90;;;19.40;99.90;;;;;;5063021;28;20115;-73
2022/07/20 04:04:25;;;;;;;1999.90;999.90;;;19.40;99.90;;;;;;5054134;28;20075;-71
2022/07/20 04:06:51;;;;;;;1999.90;999.90;;;19.40;99.90;;;;;;5049263;28;20037;-70
2022/07/20 04:09:43;;;;;;;1999.90;999.90;;;19.40;99.90;;;;;;5054649;28;20074;-73
2022/07/20 04:12:03;;;;;;;1999.90;999.90;;;19.40;99.90;;;;;;5054226;28;20364;-73
2022/07/20 04:14:29;;;;;;;1999.90;999.90;;;19.40;99.90;;;;;;5054020;28;20140;-70
2022/07/20 04:16:55;;;;;;;1999.90;999.90;;;19.40;99.90;;;;;;5053588;28;20115;-71
2022/07/20 04:19:20;;;;;;;1999.90;999.90;;;19.50;99.90;;;;;;5054452;28;20029;-70
2022/07/20 04:21:46;;;;;;;1999.90;999.90;;;19.40;99.90;;;;;;5054167;28;20078;-71
2022/07/20 04:24:12;;;;;;;1999.90;999.90;;;19.40;99.90;;;;;;5054622;28;20507;-70
2022/07/20 04:26:37;;;;;;;1999.90;999.90;;;19.40;99.90;;;;;;5054273;28;20032;-74
2022/07/20 04:29:03;;;;;;;1999.90;999.90;;;19.40;99.90;;;;;;5054317;28;20092;-71
2022/07/20 04:31:28;;;;;;;1999.90;999.90;;;19.40;99.90;;;;;;5054169;28;20052;-72
2022/07/20 04:33:54;;;;;;;1999.90;999.90;;;19.40;99.90;;;;;;5052376;28;20017;-70
2022/07/20 04:36:20;;;;;;;1999.90;999.90;;;19.40;99.90;;;;;;5053556;28;20037;-71
2022/07/20 04:38:45;;;;;;;1999.90;999.90;;;19.40;99.90;;;;;;5044798;28;20027;-74
2022/07/20 04:41:11;;;;;;;1999.90;999.90;;;19.40;99.90;;;;;;5064308;28;20021;-70
2022/07/20 04:43:37;;;;;;;1999.90;999.90;;;19.40;99.90;;;;;;5053890;28;20036;-71
2022/07/20 04:46:02;;;;;;;1999.90;999.90;;;19.40;99.90;;;;;;5053609;28;20429;-73
2022/07/20 04:48:28;;;;;;;1999.90;999.90;;;19.50;99.90;;;;;;5053944;28;20100;-73
2022/07/20 04:50:53;;;;;;;1999.90;999.90;;;19.50;99.90;;;;;;5052963;28;20035;-73
2022/07/20 04:53:19;;;;;;;1999.90;999.90;;;19.50;99.90;;;;;;5053861;28;20051;-74
2022/07/20 04:55:45;;;;;;;1999.90;999.90;;;19.50;99.90;;;;;;5053473;28;20502;-70
2022/07/20 04:58:10;;;;;;;1999.90;999.90;;;19.40;99.90;;;;;;5047954;28;20037;-71
2022/07/20 05:00:36;;;;;;;1999.90;999.90;;;19.40;99.90;;;;;;5049848;28;20037;-73
2022/07/20 05:03:02;;;;;;;1999.90;999.90;;;19.40;99.90;;;;;;5053412;28;20059;-70
2022/07/20 05:05:27;;;;;;;1999.90;999.90;;;19.40;99.90;;;;;;5053433;28;20037;-73
2022/07/20 05:07:53;;;;;;;1999.90;999.90;;;19.40;99.90;;;;;;5053224;28;20025;-73
2022/07/20 05:10:18;;;;;;;1999.90;999.90;;;19.40;99.90;;;;;;5053466;28;20491;-71
2022/07/20 05:12:44;;;;;;;1999.90;999.90;;;19.40;99.90;;;;;;5053312;28;20017;-70
2022/07/20 05:15:10;;;;;;;1999.90;999.90;;;19.40;99.90;;;;;;5053361;28;20033;-71
2022/07/20 05:17:36;;;;;;;1999.90;999.90;;;19.50;99.90;;;;;;5052246;28;20025;-73
2022/07/20 05:20:02;;;;;;;1999.90;999.90;;;19.50;99.90;;;;;;5052954;28;20492;-71
2022/07/20 05:22:28;;;;;;;1999.90;999.90;;;19.50;99.90;;;;;;5053183;28;20127;-70
2022/07/20 05:24:53;;;;;;;1999.90;999.90;;;19.60;99.90;;;;;;5053027;28;20139;-73
2022/07/20 05:27:19;;;;;;;1999.90;999.90;;;19.70;99.90;;;;;;5053217;28;20025;-71
2022/07/20 05:29:44;;;;;;;1999.90;999.90;;;19.80;99.90;;;;;;5052828;28;20033;-73
2022/07/20 05:32:10;;;;;;;1999.90;999.90;;;19.80;99.90;;;;;;5053051;28;20412;-70
2022/07/20 05:34:36;;;;;;;1999.90;999.90;;;19.90;99.90;;;;;;5047821;28;20057;-71
2022/07/20 05:37:01;;;;;;;1999.90;999.90;;;20.10;99.90;;;;;;5047426;28;20033;-71
2022/07/20 05:39:27;;;;;;;1999.90;999.90;;;20.00;99.90;;;;;;5047761;28;20033;-73
2022/07/20 05:41:54;;;;;;;1999.90;999.90;;;20.10;99.90;;;;;;5063639;28;20082;-71
2022/07/20 05:44:19;;;;;;;1999.90;999.90;;;20.10;99.90;;;;;;5052766;28;20024;-71
2022/07/20 05:46:45;;;;;;;1999.90;999.90;;;20.10;99.90;;;;;;5052464;28;20549;-73
2022/07/20 05:49:11;;;;;;;1999.90;999.90;;;20.10;99.90;;;;;;5052456;28;20021;-70
2022/07/20 05:51:36;;;;;;;1999.90;999.90;;;20.10;99.90;;;;;;5052815;28;20029;-73
2022/07/20 05:54:02;;;;;;;1999.90;999.90;;;20.00;99.90;;;;;;5052660;28;20028;-73
2022/07/20 05:56:28;;;;;;;1999.90;999.90;;;20.10;99.90;;;;;;5034187;28;20021;-71
2022/07/20 05:58:54;;;;;;;1999.90;999.90;;;20.10;99.90;;;;;;5052366;28;20514;-72
2022/07/20 06:01:20;;;;;;;1999.90;999.90;;;20.10;99.90;;;;;;5056363;28;20372;-72
2022/07/20 06:03:45;;;;;;;1999.90;999.90;;;20.00;99.90;;;;;;5057551;28;20064;-70
2022/07/20 06:06:11;;;;;;;1999.90;999.90;;;20.10;99.90;;;;;;5052547;28;20029;-73
2022/07/20 06:08:37;;;;;;;1999.90;999.90;;;20.00;99.90;;;;;;5034146;28;20037;-70
2022/07/20 06:11:03;;;;;;;1999.90;999.90;;;20.10;99.90;;;;;;5051507;28;20025;-73
2022/07/20 06:13:29;;;;;;;1999.90;999.90;;;20.20;99.90;;;;;;5043951;28;20482;-71
2022/07/20 06:15:55;;;;;;;1999.90;999.90;;;20.30;99.90;;;;;;5050578;28;20108;-70
2022/07/20 06:18:20;;;;;;;1999.90;999.90;;;20.50;99.90;;;;;;5049299;28;20123;-71
2022/07/20 06:20:46;;;;;;;1999.90;999.90;;;20.50;99.90;;;;;;5052094;28;20031;-73
2022/07/20 06:23:11;;;;;;;1999.90;999.90;;;20.40;99.90;;;;;;5052168;28;20060;-73
2022/07/20 06:25:37;;;;;;;1999.90;999.90;;;20.40;99.90;;;;;;5051947;28;20050;-72
2022/07/20 06:28:03;;;;;;;1999.90;999.90;;;20.40;99.90;;;;;;5048917;28;20018;-70
2022/07/20 06:30:29;;;;;;;1999.90;999.90;;;20.30;99.90;;;;;;5044928;28;20048;-72
2022/07/20 06:32:55;;;;;;;1999.90;999.90;;;20.40;99.90;;;;;;5050771;28;20393;-73
2022/07/20 06:35:21;;;;;;;1999.90;999.90;;;20.60;99.90;;;;;;5044633;28;20017;-72
2022/07/20 06:37:47;;;;;;;1999.90;999.90;;;20.70;99.90;;;;;;5042572;28;20033;-73
2022/07/20 06:40:13;;;;;;;1999.90;999.90;;;20.70;99.90;;;;;;5050228;28;20037;-70
2022/07/20 06:42:38;;;;;;;1999.90;999.90;;;20.90;99.90;;;;;;5050940;28;20108;-73
2022/07/20 06:45:06;;;;;;;1999.90;999.90;;;21.10;99.90;;;;;;5049892;28;20029;-72
2022/07/20 06:47:32;;;;;;;1999.90;999.90;;;21.20;99.90;;;;;;5050227;28;20029;-70
2022/07/20 06:49:57;;;;;;;1999.90;999.90;;;21.50;99.90;;;;;;5050337;28;20554;-71
2022/07/20 06:52:23;;;;;;;1999.90;999.90;;;21.60;99.90;;;;;;5050186;28;20041;-71
2022/07/20 06:54:49;;;;;;;1999.90;999.90;;;21.60;99.90;;;;;;5049004;28;20033;-71
2022/07/20 06:57:14;;;;;;;1999.90;999.90;;;21.60;99.90;;;;;;5043299;28;20036;-72
2022/07/20 06:59:41;;;;;;;1999.90;999.90;;;21.40;99.90;;;;;;5045718;28;20025;-72
2022/07/20 07:02:07;;;;;;;1999.90;999.90;;;21.40;99.90;;;;;;5048213;28;20025;-73
2022/07/20 07:04:33;;;;;;;1999.90;999.90;;;21.50;99.90;;;;;;5044247;28;20048;-73
2022/07/20 07:06:58;;;;;;;1999.90;999.90;;;21.70;99.90;;;;;;5047822;28;20032;-70
2022/07/20 07:09:25;;;;;;;1999.90;999.90;;;21.90;99.90;;;;;;5054707;28;20028;-72
2022/07/20 07:11:50;;;;;;;1999.90;999.90;;;22.00;99.90;;;;;;5049983;28;20029;-73
2022/07/20 07:14:16;;;;;;;1999.90;999.90;;;21.80;99.90;;;;;;5051172;28;20484;-73
2022/07/20 07:16:42;;;;;;;1999.90;999.90;;;21.80;99.90;;;;;;5051725;28;20033;-72
2022/07/20 07:19:07;;;;;;;1999.90;999.90;;;21.60;99.90;;;;;;5053147;28;20028;-70
2022/07/20 07:21:33;;;;;;;1999.90;999.90;;;21.50;99.90;;;;;;5052368;28;20029;-70
2022/07/20 07:23:59;;;;;;;1999.90;999.90;;;21.40;99.90;;;;;;5053057;28;20468;-73
2022/07/20 07:26:25;;;;;;;1999.90;999.90;;;21.60;99.90;;;;;;5052859;28;20036;-73
2022/07/20 07:28:50;;;;;;;1999.90;999.90;;;21.60;99.90;;;;;;5058215;28;20021;-73
2022/07/20 07:31:17;;;;;;;1999.90;999.90;;;21.60;99.90;;;;;;5053024;28;20053;-73
2022/07/20 07:33:44;;;;;;;1999.90;999.90;;;21.70;99.90;;;;;;5047152;28;20058;-72
2022/07/20 07:36:10;;;;;;;1999.90;999.90;;;22.00;99.90;;;;;;5047168;28;20070;-71
2022/07/20 07:38:35;;;;;;;1999.90;999.90;;;22.10;99.90;;;;;;5053023;28;20025;-74
2022/07/20 07:41:01;;;;;;;1999.90;999.90;;;22.40;99.90;;;;;;5051856;28;20028;-72
2022/07/20 07:43:27;;;;;;;1999.90;999.90;;;22.70;99.90;;;;;;5053239;28;20058;-73
2022/07/20 07:45:52;;;;;;;1999.90;999.90;;;22.10;99.90;;;;;;5052728;28;20528;-71
2022/07/20 07:48:18;;;;;;;1999.90;999.90;;;21.70;99.90;;;;;;5055112;28;20028;-71
2022/07/20 07:50:44;;;;;;;1999.90;999.90;;;23.20;99.90;;;;;;5043091;28;20476;-74
2022/07/20 07:53:11;;;;;;;1999.90;999.90;;;24.80;99.90;;;;;;5052656;28;20047;-74
2022/07/20 07:55:38;;;;;;;1999.90;999.90;;;25.80;99.90;;;;;;5052143;28;20107;-73
2022/07/20 07:58:05;;;;;;;1999.90;999.90;;;26.50;99.90;;;;;;5052417;28;20029;-71
2022/07/20 08:00:31;;;;;;;1999.90;999.90;;;27.10;99.90;;;;;;5053136;28;20040;-75
2022/07/20 08:02:57;;;;;;;1999.90;999.90;;;26.60;99.90;;;;;;5052542;28;20029;-72
2022/07/20 08:05:23;;;;;;;1999.90;999.90;;;25.90;99.90;;;;;;5052639;28;20438;-74
2022/07/20 08:07:49;;;;;;;1999.90;999.90;;;26.70;99.90;;;;;;5050638;28;20032;-74
2022/07/20 08:10:15;;;;;;;1999.90;999.90;;;25.90;99.90;;;;;;5051293;28;20040;-74
2022/07/20 08:12:42;;;;;;;1999.90;999.90;;;25.90;99.90;;;;;;5051896;28;20033;-72
2022/07/20 08:15:08;;;;;;;1999.90;999.90;;;26.10;99.90;;;;;;5052840;28;20029;-71
2022/07/20 08:17:34;;;;;;;1999.90;999.90;;;26.50;99.90;;;;;;5051961;28;20503;-72
2022/07/20 08:20:00;;;;;;;1999.90;999.90;;;27.50;99.90;;;;;;5051019;28;20037;-75
2022/07/20 08:22:25;;;;;;;1999.90;999.90;;;27.70;99.90;;;;;;5052397;28;20025;-73
2022/07/20 08:24:51;;;;;;;1999.90;999.90;;;26.50;99.90;;;;;;5033692;28;20025;-73
2022/07/20 08:27:17;;;;;;;1999.90;999.90;;;25.40;99.90;;;;;;5052204;28;20032;-71
2022/07/20 08:29:42;;;;;;;1999.90;999.90;;;24.40;99.90;;;;;;5048069;28;20060;-74
2022/07/20 08:32:08;;;;;;;1999.90;999.90;;;25.90;99.90;;;;;;5049460;28;20044;-72
2022/07/20 08:34:34;;;;;;;1999.90;999.90;;;24.30;99.90;;;;;;5052333;28;20151;-74
2022/07/20 08:36:59;;;;;;;1999.90;999.90;;;24.40;99.90;;;;;;5066175;28;20059;-72
2022/07/20 08:39:25;;;;;;;1999.90;999.90;;;26.00;99.90;;;;;;5055267;28;20036;-72
2022/07/20 08:41:51;;;;;;;1999.90;999.90;;;27.80;99.90;;;;;;5050704;28;20125;-74
2022/07/20 08:44:17;;;;;;;1999.90;999.90;;;29.30;98.60;;;;;;5052754;28;20143;-74
2022/07/20 08:46:44;;;;;;;1999.90;999.90;;;29.10;98.40;;;;;;5050082;28;20391;-71
2022/07/20 08:49:11;;;;;;;1999.90;999.90;;;28.60;98.10;;;;;;5056307;28;20032;-72
2022/07/20 08:51:37;;;;;;;1999.90;999.90;;;27.10;99.40;;;;;;5053906;28;20027;-72
2022/07/20 08:54:03;;;;;;;1999.90;999.90;;;26.90;99.90;;;;;;5044398;28;20025;-72
2022/07/20 08:56:29;;;;;;;1999.90;999.90;;;26.90;99.90;;;;;;5049886;28;20025;-75
2022/07/20 08:58:55;;;;;;;1999.90;999.90;;;27.10;99.90;;;;;;5059346;28;20040;-72
2022/07/20 09:01:21;;;;;;;1999.90;999.90;;;27.50;99.50;;;;;;5052669;28;20526;-74
2022/07/20 09:04:10;;;;;;;1999.90;999.90;;;27.90;98.80;;;;;;5054559;28;20104;-72
2022/07/20 09:06:43;;;;;;;1999.90;999.90;;;28.30;98.70;;;;;;5044055;28;20013;-74
2022/07/20 09:09:09;;;;;;;1999.90;999.90;;;28.80;97.80;;;;;;5047985;28;20552;-72
2022/07/20 09:11:35;;;;;;;1999.90;999.90;;;29.60;96.70;;;;;;5046875;28;20044;-74
2022/07/20 09:14:01;;;;;;;1999.90;999.90;;;28.30;97.30;;;;;;5050973;28;20472;-73
2022/07/20 09:16:46;;;;;;;1999.90;999.90;;;28.00;98.60;;;;;;5048652;28;20432;-73
2022/07/20 09:19:14;;;;;;;1999.90;999.90;;;29.60;96.60;;;;;;5048360;28;20104;-72
2022/07/20 09:21:41;;;;;;;1999.90;999.90;;;28.70;97.20;;;;;;5046997;28;20052;-72
2022/07/20 09:24:08;;;;;;;1999.90;999.90;;;26.40;98.60;;;;;;5049180;28;20021;-74
2022/07/20 09:26:34;;;;;;;1999.90;999.90;;;26.70;99.40;;;;;;5048160;28;20053;-75
2022/07/20 09:29:03;;;;;;;1999.90;999.90;;;27.60;98.50;;;;;;5043795;28;20020;-73
2022/07/20 09:31:36;;;;;;;1999.90;999.90;;;28.90;97.60;;;;;;5051350;28;20064;-72
2022/07/20 09:34:05;;;;;;;1999.90;999.90;;;28.80;97.40;;;;;;5053267;28;20028;-74
2022/07/20 09:36:36;;;;;;;1999.90;999.90;;;28.20;98.00;;;;;;5046927;28;20021;-73
2022/07/20 09:39:14;;;;;;;1999.90;999.90;;;28.60;97.00;;;;;;5047952;28;20062;-72
2022/07/20 09:41:42;;;;;;;1999.90;999.90;;;28.90;96.30;;;;;;5053684;28;20031;-72
2022/07/20 09:44:13;;;;;;;1999.90;999.90;;;29.30;95.10;;;;;;5050115;28;20021;-75
2022/07/20 09:46:39;;;;;;;1999.90;999.90;;;28.70;95.80;;;;;;5049584;28;20048;-75
2022/07/20 09:49:07;;;;;;;1999.90;999.90;;;28.30;95.80;;;;;;5049589;28;20100;-72
2022/07/20 09:51:38;;;;;;;1999.90;999.90;;;28.20;95.70;;;;;;5049760;28;20082;-72
2022/07/20 09:54:18;;;;;;;1999.90;999.90;;;28.00;95.50;;;;;;5056063;28;20013;-74
2022/07/20 09:56:46;;;;;;;1999.90;999.90;;;28.80;96.10;;;;;;5050116;28;20021;-72
2022/07/20 09:59:13;;;;;;;1999.90;999.90;;;28.70;96.20;;;;;;5051926;28;20492;-73
2022/07/20 10:01:48;;;;;;;1999.90;999.90;;;28.20;96.70;;;;;;5051415;28;20551;-74
2022/07/20 10:04:14;;;;;;;1999.90;999.90;;;28.10;96.80;;;;;;5051831;28;20021;-74
2022/07/20 10:06:44;;;;;;;1999.90;999.90;;;28.20;96.20;;;;;;5051328;28;20056;-75
2022/07/20 10:09:11;;;;;;;1999.90;999.90;;;28.20;95.60;;;;;;5053209;28;20043;-73
2022/07/20 10:11:37;;;;;;;1999.90;999.90;;;28.00;96.60;;;;;;5051893;28;20017;-73
2022/07/20 10:14:05;;;;;;;1999.90;999.90;;;27.90;96.50;;;;;;5033099;28;20480;-74
2022/07/20 10:16:46;;;;;;;1999.90;999.90;;;28.80;96.30;;;;;;5053601;28;20025;-74
2022/07/20 10:19:12;;;;;;;1999.90;999.90;;;29.60;94.30;;;;;;5050682;28;20070;-72
2022/07/20 10:21:45;;;;;;;1999.90;999.90;;;28.70;94.20;;;;;;5050816;28;20033;-72
2022/07/20 10:24:19;;;;;;;1999.90;999.90;;;29.20;93.60;;;;;;5051396;28;20029;-72
2022/07/20 10:26:46;;;;;;;1999.90;999.90;;;29.00;93.40;;;;;;5051460;28;20060;-74
2022/07/20 10:29:30;;;;;;;1999.90;999.90;;;29.90;93.30;;;;;;5051339;28;20052;-74
2022/07/20 10:32:09;;;;;;;1999.90;999.90;;;28.90;93.20;;;;;;5051047;28;20049;-74
2022/07/20 10:34:39;;;;;;;1999.90;999.90;;;28.40;93.90;;;;;;5050018;28;20033;-72
2022/07/20 10:37:36;;;;;;;1999.90;999.90;;;28.10;93.60;;;;;;5026076;28;20029;-72
2022/07/20 10:40:05;;;;;;;1999.90;999.90;;;27.70;94.20;;;;;;5050362;28;20135;-72
2022/07/20 10:42:34;;;;;;;1999.90;999.90;;;28.00;95.20;;;;;;5051606;28;20368;-74
2022/07/20 10:45:20;;;;;;;1999.90;999.90;;;28.10;95.50;;;;;;5051404;28;20432;-74
2022/07/20 10:48:01;;;;;;;1999.90;999.90;;;29.00;94.90;;;;;;5051405;28;20076;-73
2022/07/20 10:50:50;;;;;;;1999.90;999.90;;;28.40;94.50;;;;;;5055747;28;20029;-73
2022/07/20 10:53:15;;;;;;;1999.90;999.90;;;28.20;94.70;;;;;;5039494;28;20041;-73
2022/07/20 10:55:44;;;;;;;1999.90;999.90;;;28.10;95.50;;;;;;5055233;28;20033;-75
2022/07/20 10:58:28;;;;;;;1999.90;999.90;;;27.60;95.90;;;;;;5055405;28;20024;-75
2022/07/20 11:00:58;;;;;;;1999.90;999.90;;;28.20;95.30;;;;;;5055186;28;20396;-73
2022/07/20 11:03:27;;;;;;;1999.90;999.90;;;28.80;95.50;;;;;;5055459;28;20029;-73
2022/07/20 11:06:15;;;;;;;1999.90;999.90;;;28.80;94.80;;;;;;5048611;28;20685;-72
2022/07/20 11:08:52;;;;;;;1999.90;999.90;;;28.90;94.80;;;;;;5053318;28;20025;-72
2022/07/20 11:11:27;;;;;;;1999.90;999.90;;;28.30;95.10;;;;;;5054956;28;20040;-75
2022/07/20 11:13:53;;;;;;;1999.90;999.90;;;27.50;96.30;;;;;;5054730;28;20021;-73
2022/07/20 11:16:21;;;;;;;1999.90;999.90;;;27.70;96.20;;;;;;5062234;28;20074;-73
2022/07/20 11:18:48;;;;;;;1999.90;999.90;;;27.70;96.30;;;;;;5037455;28;20059;-74
2022/07/20 11:21:13;;;;;;;1999.90;999.90;;;28.00;95.30;;;;;;5054311;28;20028;-73
2022/07/20 11:23:43;;;;;;;1999.90;999.90;;;27.90;95.20;;;;;;5054753;28;20021;-74
2022/07/20 11:26:10;;;;;;;1999.90;999.90;;;28.40;95.20;;;;;;5054182;28;20029;-73
2022/07/20 11:28:44;;;;;;;1999.90;999.90;;;28.10;95.30;;;;;;5054696;28;20028;-73
2022/07/20 11:31:10;;;;;;;1999.90;999.90;;;28.40;94.40;;;;;;5053572;28;20047;-75
2022/07/20 11:33:41;;;;;;;1999.90;999.90;;;28.40;94.50;;;;;;5053702;28;20487;-74
2022/07/20 11:36:13;;;;;;;1999.90;999.90;;;28.00;94.80;;;;;;5043260;28;20429;-74
2022/07/20 11:38:45;;;;;;;1999.90;999.90;;;27.40;96.30;;;;;;5036199;28;20025;-73
2022/07/20 11:41:13;;;;;;;1999.90;999.90;;;28.10;95.90;;;;;;5054520;28;20136;-73
2022/07/20 11:43:39;;;;;;;1999.90;999.90;;;28.30;95.80;;;;;;5054457;28;20044;-73
2022/07/20 11:46:21;;;;;;;1999.90;999.90;;;28.30;95.40;;;;;;5053756;28;20087;-72
2022/07/20 11:49:17;;;;;;;1999.90;999.90;;;27.00;96.30;;;;;;5054448;28;20021;-74
2022/07/20 11:51:53;;;;;;;1999.90;999.90;;;27.00;96.70;;;;;;5041724;28;20507;-72
2022/07/20 11:54:27;;;;;;;1999.90;999.90;;;26.60;96.90;;;;;;5054279;28;20014;-72
2022/07/20 11:56:54;;;;;;;1999.90;999.90;;;26.00;98.00;;;;;;5032686;28;20029;-74
2022/07/20 11:59:21;;;;;;;1999.90;999.90;;;26.20;97.70;;;;;;5053928;28;20073;-75
2022/07/20 12:01:50;;;;;;;1999.90;999.90;;;25.70;98.40;;;;;;5056591;28;20021;-75